Time,TemperatureF,DewpointF,PressureIn,WindDirection,WindDirectionDegrees,WindSpeedMPH,WindSpeedGustMPH,Humidity,HourlyPrecipIn,Conditions,Clouds,dailyrainin,SolarRadiationWatts/m^2,SoftwareType,DateUTC
2013-03-03 00:00:00,44.3,37.9,30.01,West,273,0.0,1.0,78,0.00,,---,0.00,0.00,VWS V14.00,2013-03-03 05:00:00,
2013-03-03 00:30:00,44.0,37.6,30.00,West,273,0.0,0.0,78,0.00,,---,0.00,0.00,VWS V14.00,2013-03-03 05:30:00,
2013-03-03 01:00:00,43.5,38.1,30.00,West,273,0.0,0.0,81,0.00,,---,0.00,0.00,VWS V14.00,2013-03-03 06:00:00,
2013-03-03 01:30:00,43.9,39.4,30.00,West,273,0.0,0.0,84,0.00,,---,0.00,0.00,VWS V14.00,2013-03-03 06:30:00,
2013-03-03 02:00:00,44.0,39.2,29.99,West,273,0.0,0.0,83,0.00,,---,0.00,0.00,VWS V14.00,2013-03-03 07:00:00,
2013-03-03 02:30:00,43.8,39.0,29.99,West,273,0.0,0.0,83,0.00,,---,0.00,0.00,VWS V14.00,2013-03-03 07:30:00,
2013-03-03 03:00:00,42.9,38.7,30.00,West,273,2.0,3.0,85,0.00,,---,0.00,0.00,VWS V14.00,2013-03-03 08:00:00,
2013-03-03 03:30:00,42.2,35.5,30.00,West,274,1.0,8.0,77,0.00,,---,0.00,0.00,VWS V14.00,2013-03-03 08:30:00,
2013-03-03 04:00:00,41.2,33.5,30.00,West,280,5.0,9.0,74,0.00,,---,0.00,0.00,VWS V14.00,2013-03-03 09:00:00,
2013-03-03 04:30:00,40.6,32.3,30.00,West,269,5.0,9.0,72,0.00,,---,0.00,0.00,VWS V14.00,2013-03-03 09:30:00,
2013-03-03 05:00:00,41.0,35.3,30.01,West,271,0.0,8.0,80,0.00,,---,0.00,0.00,VWS V14.00,2013-03-03 10:00:00,
2013-03-03 05:30:00,40.4,32.8,30.02,West,272,2.0,7.0,74,0.00,,---,0.00,0.00,VWS V14.00,2013-03-03 10:30:00,
2013-03-03 06:00:00,39.9,31.6,30.03,West,279,5.0,11.0,72,0.00,,---,0.00,0.00,VWS V14.00,2013-03-03 11:00:00,
2013-03-03 06:30:00,39.4,31.5,30.04,West,278,2.0,8.0,73,0.00,,---,0.00,7.00,VWS V14.00,2013-03-03 11:30:00,
2013-03-03 07:00:00,38.8,31.6,30.04,West,278,0.0,7.0,75,0.00,,---,0.00,39.00,VWS V14.00,2013-03-03 12:00:00,
2013-03-03 07:30:00,39.4,32.5,30.05,West,278,5.0,6.0,76,0.00,,---,0.00,171.00,VWS V14.00,2013-03-03 12:30:00,
2013-03-03 08:00:00,41.4,32.7,30.05,West,275,6.0,9.0,71,0.00,,---,0.00,272.00,VWS V14.00,2013-03-03 13:00:00,
2013-03-03 08:30:00,44.1,33.5,30.07,West,277,3.0,10.0,66,0.00,,---,0.00,374.00,VWS V14.00,2013-03-03 13:30:00,
2013-03-03 09:00:00,46.3,33.2,30.07,West,279,5.0,9.0,60,0.00,,---,0.00,483.00,VWS V14.00,2013-03-03 14:00:00,
2013-03-03 09:30:00,47.9,33.4,30.06,West,273,2.0,12.0,57,0.00,,---,0.00,577.00,VWS V14.00,2013-03-03 14:30:00,
2013-03-03 10:00:00,49.9,34.4,30.06,WNW,286,8.0,11.0,55,0.00,,---,0.00,650.00,VWS V14.00,2013-03-03 15:00:00,
2013-03-03 10:30:00,51.6,35.0,30.05,West,267,3.0,14.0,53,0.00,,---,0.00,719.00,VWS V14.00,2013-03-03 15:30:00,
2013-03-03 11:00:00,52.8,35.7,30.05,West,275,7.0,11.0,52,0.00,,---,0.00,770.00,VWS V14.00,2013-03-03 16:00:00,
2013-03-03 11:30:00,54.4,36.7,30.04,West,279,1.0,13.0,51,0.00,,---,0.00,803.00,VWS V14.00,2013-03-03 16:30:00,
2013-03-03 12:00:00,56.2,37.3,30.03,West,279,2.0,13.0,49,0.00,,---,0.00,965.00,VWS V14.00,2013-03-03 17:00:00,
2013-03-03 12:30:00,56.4,39.0,30.01,West,270,6.0,15.0,52,0.00,,---,0.00,918.00,VWS V14.00,2013-03-03 17:30:00,
2013-03-03 13:00:00,55.9,37.5,30.00,West,272,6.0,19.0,50,0.00,,---,0.00,830.00,VWS V14.00,2013-03-03 18:00:00,
2013-03-03 13:30:00,56.7,37.8,29.99,West,267,9.0,23.0,49,0.00,,---,0.00,784.00,VWS V14.00,2013-03-03 18:30:00,
2013-03-03 14:00:00,57.5,38.5,29.99,West,271,5.0,19.0,49,0.00,,---,0.00,731.00,VWS V14.00,2013-03-03 19:00:00,
2013-03-03 14:30:00,57.5,38.0,29.98,WNW,291,8.0,22.0,48,0.00,,---,0.00,663.00,VWS V14.00,2013-03-03 19:30:00,
2013-03-03 15:00:00,56.9,38.0,29.98,West,270,6.0,17.0,49,0.00,,---,0.00,598.00,VWS V14.00,2013-03-03 20:00:00,
2013-03-03 15:30:00,57.1,37.6,29.98,West,265,3.0,17.0,48,0.00,,---,0.00,531.00,VWS V14.00,2013-03-03 20:30:00,
2013-03-03 16:00:00,56.5,37.1,29.99,West,277,6.0,18.0,48,0.00,,---,0.00,482.00,VWS V14.00,2013-03-03 21:00:00,
2013-03-03 16:30:00,54.5,36.3,30.00,West,274,5.0,22.0,50,0.00,,---,0.00,88.00,VWS V14.00,2013-03-03 21:30:00,
2013-03-03 17:00:00,54.2,36.5,30.01,West,272,17.0,17.0,51,0.00,,---,0.00,90.00,VWS V14.00,2013-03-03 22:00:00,
2013-03-03 17:30:00,53.0,35.9,30.03,West,267,6.0,18.0,52,0.00,,---,0.00,51.00,VWS V14.00,2013-03-03 22:30:00,
2013-03-03 18:00:00,51.8,35.7,30.04,WNW,286,7.0,14.0,54,0.00,,---,0.00,7.00,VWS V14.00,2013-03-03 23:00:00,
2013-03-03 18:30:00,50.6,35.9,30.05,West,272,2.0,11.0,57,0.00,,---,0.00,0.00,VWS V14.00,2013-03-03 23:30:00,
2013-03-03 19:00:00,49.2,35.9,30.07,West,279,3.0,8.0,60,0.00,,---,0.00,0.00,VWS V14.00,2013-03-04 00:00:00,
2013-03-03 19:30:00,47.9,36.3,30.09,West,279,1.0,6.0,64,0.00,,---,0.00,0.00,VWS V14.00,2013-03-04 00:30:00,
2013-03-03 20:00:00,46.7,36.3,30.10,West,279,0.0,3.0,67,0.00,,---,0.00,0.00,VWS V14.00,2013-03-04 01:00:00,
2013-03-03 20:30:00,45.6,36.8,30.11,West,279,0.0,1.0,71,0.00,,---,0.00,0.00,VWS V14.00,2013-03-04 01:30:00,
2013-03-03 21:00:00,44.4,36.3,30.12,West,279,0.0,0.0,73,0.00,,---,0.00,0.00,VWS V14.00,2013-03-04 02:00:00,
2013-03-03 21:30:00,43.1,35.4,30.13,West,279,0.0,1.0,74,0.00,,---,0.00,0.00,VWS V14.00,2013-03-04 02:30:00,
2013-03-03 22:00:00,42.5,34.8,30.15,West,279,3.0,5.0,74,0.00,,---,0.00,0.00,VWS V14.00,2013-03-04 03:00:00,
2013-03-03 22:30:00,42.5,34.5,30.16,West,279,5.0,7.0,73,0.00,,---,0.00,0.00,VWS V14.00,2013-03-04 03:30:00,
2013-03-03 23:00:00,43.2,34.1,30.17,WNW,286,5.0,10.0,70,0.00,,---,0.00,0.00,VWS V14.00,2013-03-04 04:00:00,
2013-03-03 23:30:00,42.4,33.7,30.17,WNW,282,2.0,10.0,71,0.00,,---,0.00,0.00,VWS V14.00,2013-03-04 04:30:00,